sensor_id;sensor_type;location;lat;lon;timestamp;temperature;humidity
15949;DHT22;14848;50.954;6.642;2023-03-26T00:00:29;9.80;99.90
15949;DHT22;14848;50.954;6.642;2023-03-26T00:02:55;9.70;99.90
15949;DHT22;14848;50.954;6.642;2023-03-26T00:05:21;9.70;99.90
15949;DHT22;14848;50.954;6.642;2023-03-26T00:07:47;9.70;99.90
15949;DHT22;14848;50.954;6.642;2023-03-26T00:10:13;9.70;99.90
15949;DHT22;14848;50.954;6.642;2023-03-26T00:12:39;9.60;99.90
15949;DHT22;14848;50.954;6.642;2023-03-26T00:15:05;9.60;99.90
15949;DHT22;14848;50.954;6.642;2023-03-26T00:17:32;9.50;99.90
15949;DHT22;14848;50.954;6.642;2023-03-26T00:19:57;9.50;99.90
15949;DHT22;14848;50.954;6.642;2023-03-26T00:22:24;9.40;99.90
15949;DHT22;14848;50.954;6.642;2023-03-26T00:24:49;9.40;99.90
15949;DHT22;14848;50.954;6.642;2023-03-26T00:27:15;9.40;99.90
15949;DHT22;14848;50.954;6.642;2023-03-26T00:29:42;9.40;99.90
15949;DHT22;14848;50.954;6.642;2023-03-26T00:32:07;9.40;99.90
15949;DHT22;14848;50.954;6.642;2023-03-26T00:34:33;9.40;99.90
15949;DHT22;14848;50.954;6.642;2023-03-26T00:36:59;9.40;99.90
15949;DHT22;14848;50.954;6.642;2023-03-26T00:39:28;9.40;99.90
15949;DHT22;14848;50.954;6.642;2023-03-26T00:41:54;9.40;99.90
15949;DHT22;14848;50.954;6.642;2023-03-26T00:44:20;9.40;99.90
15949;DHT22;14848;50.954;6.642;2023-03-26T00:46:46;9.30;99.90
15949;DHT22;14848;50.954;6.642;2023-03-26T00:49:12;9.30;99.90
15949;DHT22;14848;50.954;6.642;2023-03-26T00:51:40;9.20;99.90
15949;DHT22;14848;50.954;6.642;2023-03-26T00:54:06;9.20;99.90
15949;DHT22;14848;50.954;6.642;2023-03-26T00:56:33;9.20;99.90
15949;DHT22;14848;50.954;6.642;2023-03-26T00:58:59;9.20;99.90
15949;DHT22;14848;50.954;6.642;2023-03-26T01:01:26;9.10;99.90
15949;DHT22;14848;50.954;6.642;2023-03-26T01:03:53;8.90;99.90
15949;DHT22;14848;50.954;6.642;2023-03-26T01:06:30;8.90;99.90
15949;DHT22;14848;50.954;6.642;2023-03-26T01:09:20;8.70;99.90
15949;DHT22;14848;50.954;6.642;2023-03-26T01:11:48;8.60;99.90
15949;DHT22;14848;50.954;6.642;2023-03-26T01:14:17;8.50;99.90
15949;DHT22;14848;50.954;6.642;2023-03-26T01:16:50;8.30;99.90
15949;DHT22;14848;50.954;6.642;2023-03-26T01:19:29;8.30;99.90
15949;DHT22;14848;50.954;6.642;2023-03-26T01:21:58;8.20;99.90
15949;DHT22;14848;50.954;6.642;2023-03-26T01:24:25;8.10;99.90
15949;DHT22;14848;50.954;6.642;2023-03-26T01:35:15;8.10;99.90
15949;DHT22;14848;50.954;6.642;2023-03-26T01:37:56;8.10;99.90
15949;DHT22;14848;50.954;6.642;2023-03-26T01:40:27;8.00;99.90
15949;DHT22;14848;50.954;6.642;2023-03-26T01:45:30;7.90;99.90
15949;DHT22;14848;50.954;6.642;2023-03-26T01:47:57;7.90;99.90
15949;DHT22;14848;50.954;6.642;2023-03-26T01:50:22;7.90;99.90
15949;DHT22;14848;50.954;6.642;2023-03-26T01:52:48;7.90;99.90
15949;DHT22;14848;50.954;6.642;2023-03-26T01:55:14;7.90;99.90
15949;DHT22;14848;50.954;6.642;2023-03-26T02:00:36;8.00;99.90
15949;DHT22;14848;50.954;6.642;2023-03-26T02:06:11;8.10;99.90
15949;DHT22;14848;50.954;6.642;2023-03-26T02:08:57;8.20;99.90
15949;DHT22;14848;50.954;6.642;2023-03-26T02:11:24;8.60;99.90
15949;DHT22;14848;50.954;6.642;2023-03-26T02:13:50;8.30;99.90
15949;DHT22;14848;50.954;6.642;2023-03-26T02:16:16;8.40;99.90
15949;DHT22;14848;50.954;6.642;2023-03-26T02:18:45;8.40;99.90
15949;DHT22;14848;50.954;6.642;2023-03-26T02:21:17;8.40;99.90
15949;DHT22;14848;50.954;6.642;2023-03-26T02:23:45;8.50;99.90
15949;DHT22;14848;50.954;6.642;2023-03-26T02:26:14;8.50;99.90
15949;DHT22;14848;50.954;6.642;2023-03-26T02:28:40;8.50;99.90
15949;DHT22;14848;50.954;6.642;2023-03-26T02:31:06;8.60;99.90
15949;DHT22;14848;50.954;6.642;2023-03-26T02:33:36;8.60;99.90
15949;DHT22;14848;50.954;6.642;2023-03-26T02:36:02;8.60;99.90
15949;DHT22;14848;50.954;6.642;2023-03-26T02:38:31;8.60;99.90
15949;DHT22;14848;50.954;6.642;2023-03-26T02:41:00;8.70;99.90
15949;DHT22;14848;50.954;6.642;2023-03-26T02:43:26;8.70;99.90
15949;DHT22;14848;50.954;6.642;2023-03-26T02:45:52;8.70;99.90
15949;DHT22;14848;50.954;6.642;2023-03-26T02:48:18;8.70;99.90
15949;DHT22;14848;50.954;6.642;2023-03-26T02:50:44;8.70;99.90
15949;DHT22;14848;50.954;6.642;2023-03-26T02:53:10;8.60;99.90
15949;DHT22;14848;50.954;6.642;2023-03-26T02:55:38;11.00;99.90
15949;DHT22;14848;50.954;6.642;2023-03-26T02:58:03;8.60;99.90
15949;DHT22;14848;50.954;6.642;2023-03-26T03:00:30;8.60;99.90
15949;DHT22;14848;50.954;6.642;2023-03-26T03:02:58;8.60;99.90
15949;DHT22;14848;50.954;6.642;2023-03-26T03:05:24;8.60;99.90
15949;DHT22;14848;50.954;6.642;2023-03-26T03:07:51;8.60;99.90
15949;DHT22;14848;50.954;6.642;2023-03-26T03:10:22;8.50;99.90
15949;DHT22;14848;50.954;6.642;2023-03-26T03:12:48;8.50;99.90
15949;DHT22;14848;50.954;6.642;2023-03-26T03:15:14;8.50;99.90
15949;DHT22;14848;50.954;6.642;2023-03-26T03:17:39;8.50;99.90
15949;DHT22;14848;50.954;6.642;2023-03-26T03:20:06;8.50;99.90
15949;DHT22;14848;50.954;6.642;2023-03-26T03:22:34;8.50;99.90
15949;DHT22;14848;50.954;6.642;2023-03-26T03:25:01;8.50;99.90
15949;DHT22;14848;50.954;6.642;2023-03-26T03:27:26;8.50;99.90
15949;DHT22;14848;50.954;6.642;2023-03-26T03:29:52;8.50;99.90
15949;DHT22;14848;50.954;6.642;2023-03-26T03:32:21;8.50;99.90
15949;DHT22;14848;50.954;6.642;2023-03-26T03:34:47;8.50;99.90
15949;DHT22;14848;50.954;6.642;2023-03-26T03:37:18;8.50;99.90
15949;DHT22;14848;50.954;6.642;2023-03-26T03:39:45;8.50;99.90
15949;DHT22;14848;50.954;6.642;2023-03-26T03:42:11;8.40;99.90
15949;DHT22;14848;50.954;6.642;2023-03-26T03:44:36;8.50;99.90
15949;DHT22;14848;50.954;6.642;2023-03-26T03:47:02;8.40;99.90
15949;DHT22;14848;50.954;6.642;2023-03-26T03:49:28;8.40;99.90
15949;DHT22;14848;50.954;6.642;2023-03-26T03:51:53;8.30;99.90
15949;DHT22;14848;50.954;6.642;2023-03-26T03:54:19;8.30;99.90
15949;DHT22;14848;50.954;6.642;2023-03-26T03:56:45;8.30;99.90
15949;DHT22;14848;50.954;6.642;2023-03-26T03:59:13;8.30;99.90
15949;DHT22;14848;50.954;6.642;2023-03-26T04:01:40;8.30;99.90
15949;DHT22;14848;50.954;6.642;2023-03-26T04:04:08;8.30;99.90
15949;DHT22;14848;50.954;6.642;2023-03-26T04:06:34;8.20;99.90
15949;DHT22;14848;50.954;6.642;2023-03-26T04:08:59;8.20;99.90
15949;DHT22;14848;50.954;6.642;2023-03-26T04:11:25;8.20;99.90
15949;DHT22;14848;50.954;6.642;2023-03-26T04:13:51;8.20;99.90
15949;DHT22;14848;50.954;6.642;2023-03-26T04:16:16;8.20;99.90
15949;DHT22;14848;50.954;6.642;2023-03-26T04:18:42;8.00;99.90
15949;DHT22;14848;50.954;6.642;2023-03-26T04:21:09;8.10;99.90
15949;DHT22;14848;50.954;6.642;2023-03-26T04:23:37;8.00;99.90
15949;DHT22;14848;50.954;6.642;2023-03-26T04:26:06;8.10;99.90
15949;DHT22;14848;50.954;6.642;2023-03-26T04:28:50;8.10;99.90
15949;DHT22;14848;50.954;6.642;2023-03-26T04:31:20;8.10;99.90
15949;DHT22;14848;50.954;6.642;2023-03-26T04:33:50;8.00;99.90
15949;DHT22;14848;50.954;6.642;2023-03-26T04:36:24;8.20;99.90
15949;DHT22;14848;50.954;6.642;2023-03-26T04:38:52;8.00;99.90
15949;DHT22;14848;50.954;6.642;2023-03-26T04:41:19;8.00;99.90
15949;DHT22;14848;50.954;6.642;2023-03-26T04:43:46;8.00;99.90
15949;DHT22;14848;50.954;6.642;2023-03-26T04:46:17;8.10;99.90
15949;DHT22;14848;50.954;6.642;2023-03-26T04:48:49;8.90;99.90
15949;DHT22;14848;50.954;6.642;2023-03-26T04:51:16;8.00;99.90
15949;DHT22;14848;50.954;6.642;2023-03-26T04:53:54;8.00;99.90
15949;DHT22;14848;50.954;6.642;2023-03-26T04:58:50;8.00;99.90
15949;DHT22;14848;50.954;6.642;2023-03-26T05:01:16;8.00;99.90
15949;DHT22;14848;50.954;6.642;2023-03-26T05:03:43;8.10;99.90
15949;DHT22;14848;50.954;6.642;2023-03-26T05:06:10;8.00;99.90
15949;DHT22;14848;50.954;6.642;2023-03-26T05:08:37;7.90;99.90
15949;DHT22;14848;50.954;6.642;2023-03-26T05:11:03;8.00;99.90
15949;DHT22;14848;50.954;6.642;2023-03-26T05:13:32;7.90;99.90
15949;DHT22;14848;50.954;6.642;2023-03-26T05:15:57;7.90;99.90
15949;DHT22;14848;50.954;6.642;2023-03-26T05:18:23;7.80;99.90
15949;DHT22;14848;50.954;6.642;2023-03-26T05:20:48;7.80;99.90
15949;DHT22;14848;50.954;6.642;2023-03-26T05:23:14;7.70;99.90
15949;DHT22;14848;50.954;6.642;2023-03-26T05:25:40;7.70;99.90
15949;DHT22;14848;50.954;6.642;2023-03-26T05:28:06;7.60;99.90
15949;DHT22;14848;50.954;6.642;2023-03-26T05:30:31;7.60;99.90
15949;DHT22;14848;50.954;6.642;2023-03-26T05:32:57;7.60;99.90
15949;DHT22;14848;50.954;6.642;2023-03-26T05:35:23;7.50;99.90
15949;DHT22;14848;50.954;6.642;2023-03-26T05:37:48;7.90;99.90
15949;DHT22;14848;50.954;6.642;2023-03-26T05:40:16;7.60;99.90
15949;DHT22;14848;50.954;6.642;2023-03-26T05:42:42;7.60;99.90
15949;DHT22;14848;50.954;6.642;2023-03-26T05:45:10;7.60;99.90
15949;DHT22;14848;50.954;6.642;2023-03-26T05:47:37;7.60;99.90
15949;DHT22;14848;50.954;6.642;2023-03-26T05:50:04;7.50;99.90
15949;DHT22;14848;50.954;6.642;2023-03-26T05:52:30;7.50;99.90
15949;DHT22;14848;50.954;6.642;2023-03-26T05:54:56;7.50;99.90
15949;DHT22;14848;50.954;6.642;2023-03-26T05:57:22;7.50;99.90
15949;DHT22;14848;50.954;6.642;2023-03-26T05:59:48;7.50;99.90
15949;DHT22;14848;50.954;6.642;2023-03-26T06:02:14;7.40;99.90
15949;DHT22;14848;50.954;6.642;2023-03-26T06:04:40;7.50;99.90
15949;DHT22;14848;50.954;6.642;2023-03-26T06:07:07;7.50;99.90
15949;DHT22;14848;50.954;6.642;2023-03-26T06:09:37;7.50;99.90
15949;DHT22;14848;50.954;6.642;2023-03-26T06:12:07;7.50;99.90
15949;DHT22;14848;50.954;6.642;2023-03-26T06:14:33;7.50;99.90
15949;DHT22;14848;50.954;6.642;2023-03-26T06:16:59;7.50;99.90
15949;DHT22;14848;50.954;6.642;2023-03-26T06:19:24;7.50;99.90
15949;DHT22;14848;50.954;6.642;2023-03-26T06:21:50;7.60;99.90
15949;DHT22;14848;50.954;6.642;2023-03-26T06:24:16;7.60;99.90
15949;DHT22;14848;50.954;6.642;2023-03-26T06:26:45;7.60;99.90
15949;DHT22;14848;50.954;6.642;2023-03-26T06:29:12;7.60;99.90
15949;DHT22;14848;50.954;6.642;2023-03-26T06:31:39;7.60;99.90
15949;DHT22;14848;50.954;6.642;2023-03-26T06:34:05;7.60;99.90
15949;DHT22;14848;50.954;6.642;2023-03-26T06:36:31;7.70;99.90
15949;DHT22;14848;50.954;6.642;2023-03-26T06:38:56;7.70;99.90
15949;DHT22;14848;50.954;6.642;2023-03-26T06:41:22;7.70;99.90
15949;DHT22;14848;50.954;6.642;2023-03-26T06:43:48;7.70;99.90
15949;DHT22;14848;50.954;6.642;2023-03-26T06:46:14;7.60;99.90
15949;DHT22;14848;50.954;6.642;2023-03-26T06:48:40;7.70;99.90
15949;DHT22;14848;50.954;6.642;2023-03-26T06:51:07;7.70;99.90
15949;DHT22;14848;50.954;6.642;2023-03-26T06:53:33;7.80;99.90
15949;DHT22;14848;50.954;6.642;2023-03-26T06:55:58;7.70;99.90
15949;DHT22;14848;50.954;6.642;2023-03-26T06:58:24;7.80;99.90
15949;DHT22;14848;50.954;6.642;2023-03-26T07:00:53;7.80;99.90
15949;DHT22;14848;50.954;6.642;2023-03-26T07:03:19;7.80;99.90
15949;DHT22;14848;50.954;6.642;2023-03-26T07:05:46;7.80;99.90
15949;DHT22;14848;50.954;6.642;2023-03-26T07:08:11;7.80;99.90
15949;DHT22;14848;50.954;6.642;2023-03-26T07:10:37;7.70;99.90
15949;DHT22;14848;50.954;6.642;2023-03-26T07:13:03;7.80;99.90
15949;DHT22;14848;50.954;6.642;2023-03-26T07:15:28;7.80;99.90
15949;DHT22;14848;50.954;6.642;2023-03-26T07:17:54;7.80;99.90
15949;DHT22;14848;50.954;6.642;2023-03-26T07:20:20;7.80;99.90
15949;DHT22;14848;50.954;6.642;2023-03-26T07:22:46;7.80;99.90
15949;DHT22;14848;50.954;6.642;2023-03-26T07:25:13;7.80;99.90
15949;DHT22;14848;50.954;6.642;2023-03-26T07:33:50;7.80;99.90
15949;DHT22;14848;50.954;6.642;2023-03-26T07:36:26;7.70;99.90
15949;DHT22;14848;50.954;6.642;2023-03-26T07:39:19;7.80;99.90
15949;DHT22;14848;50.954;6.642;2023-03-26T07:46:48;7.90;99.90
15949;DHT22;14848;50.954;6.642;2023-03-26T07:49:18;7.80;99.90
15949;DHT22;14848;50.954;6.642;2023-03-26T07:51:46;7.80;99.90
15949;DHT22;14848;50.954;6.642;2023-03-26T07:54:12;7.80;99.90
15949;DHT22;14848;50.954;6.642;2023-03-26T07:56:59;7.80;99.90
15949;DHT22;14848;50.954;6.642;2023-03-26T07:59:48;7.80;99.90
15949;DHT22;14848;50.954;6.642;2023-03-26T08:02:44;7.80;99.90
15949;DHT22;14848;50.954;6.642;2023-03-26T08:11:06;7.80;99.90
15949;DHT22;14848;50.954;6.642;2023-03-26T08:16:52;7.50;99.90
15949;DHT22;14848;50.954;6.642;2023-03-26T08:19:39;7.70;99.90
15949;DHT22;14848;50.954;6.642;2023-03-26T08:22:17;7.80;99.90
15949;DHT22;14848;50.954;6.642;2023-03-26T08:25:17;7.70;99.90
15949;DHT22;14848;50.954;6.642;2023-03-26T08:30:23;7.70;99.90
15949;DHT22;14848;50.954;6.642;2023-03-26T08:33:03;7.70;99.90
15949;DHT22;14848;50.954;6.642;2023-03-26T08:35:38;7.70;99.90
15949;DHT22;14848;50.954;6.642;2023-03-26T08:38:08;7.70;99.90
15949;DHT22;14848;50.954;6.642;2023-03-26T08:43:28;7.60;99.90
15949;DHT22;14848;50.954;6.642;2023-03-26T08:46:23;7.70;99.90
15949;DHT22;14848;50.954;6.642;2023-03-26T09:03:37;7.60;99.90
15949;DHT22;14848;50.954;6.642;2023-03-26T09:17:28;7.50;99.90
15949;DHT22;14848;50.954;6.642;2023-03-26T09:20:39;7.50;99.90
15949;DHT22;14848;50.954;6.642;2023-03-26T09:26:26;7.40;99.90
15949;DHT22;14848;50.954;6.642;2023-03-26T09:37:43;7.30;99.90
15949;DHT22;14848;50.954;6.642;2023-03-26T09:40:14;7.40;99.90
15949;DHT22;14848;50.954;6.642;2023-03-26T09:48:35;7.60;99.90
15949;DHT22;14848;50.954;6.642;2023-03-26T10:01:29;7.80;99.90
15949;DHT22;14848;50.954;6.642;2023-03-26T10:20:51;7.90;99.90
15949;DHT22;14848;50.954;6.642;2023-03-26T10:26:17;7.80;99.90
15949;DHT22;14848;50.954;6.642;2023-03-26T10:31:46;7.80;99.90
15949;DHT22;14848;50.954;6.642;2023-03-26T10:35:01;7.90;99.90
15949;DHT22;14848;50.954;6.642;2023-03-26T10:56:31;8.50;99.90
15949;DHT22;14848;50.954;6.642;2023-03-26T10:59:07;8.50;99.90
15949;DHT22;14848;50.954;6.642;2023-03-26T11:17:37;9.10;99.90
15949;DHT22;14848;50.954;6.642;2023-03-26T11:25:08;8.70;99.90
15949;DHT22;14848;50.954;6.642;2023-03-26T11:28:25;8.80;99.90
15949;DHT22;14848;50.954;6.642;2023-03-26T11:33:00;8.60;99.90
15949;DHT22;14848;50.954;6.642;2023-03-26T11:35:34;8.70;99.90
15949;DHT22;14848;50.954;6.642;2023-03-26T11:38:03;8.60;99.90
15949;DHT22;14848;50.954;6.642;2023-03-26T11:40:31;8.50;99.90
15949;DHT22;14848;50.954;6.642;2023-03-26T11:43:01;8.60;99.90
15949;DHT22;14848;50.954;6.642;2023-03-26T11:45:31;8.60;99.90
15949;DHT22;14848;50.954;6.642;2023-03-26T11:50:26;8.80;99.90
15949;DHT22;14848;50.954;6.642;2023-03-26T11:52:54;8.80;99.90
15949;DHT22;14848;50.954;6.642;2023-03-26T11:55:21;8.90;99.90
15949;DHT22;14848;50.954;6.642;2023-03-26T11:57:52;8.90;99.90
15949;DHT22;14848;50.954;6.642;2023-03-26T12:00:19;10.70;99.90
15949;DHT22;14848;50.954;6.642;2023-03-26T12:02:47;8.80;99.90
15949;DHT22;14848;50.954;6.642;2023-03-26T12:07:51;8.80;99.90
15949;DHT22;14848;50.954;6.642;2023-03-26T12:10:33;8.80;99.90
15949;DHT22;14848;50.954;6.642;2023-03-26T12:13:05;8.90;99.90
15949;DHT22;14848;50.954;6.642;2023-03-26T12:15:43;9.00;99.90
15949;DHT22;14848;50.954;6.642;2023-03-26T12:18:26;9.10;99.90
15949;DHT22;14848;50.954;6.642;2023-03-26T12:24:03;9.10;99.90
15949;DHT22;14848;50.954;6.642;2023-03-26T12:26:43;9.10;99.90
15949;DHT22;14848;50.954;6.642;2023-03-26T12:29:17;9.00;99.90
15949;DHT22;14848;50.954;6.642;2023-03-26T12:34:28;8.50;99.90
15949;DHT22;14848;50.954;6.642;2023-03-26T12:36:55;8.30;99.90
15949;DHT22;14848;50.954;6.642;2023-03-26T12:39:26;8.30;99.90
15949;DHT22;14848;50.954;6.642;2023-03-26T12:41:57;8.30;99.90
15949;DHT22;14848;50.954;6.642;2023-03-26T12:46:52;8.20;99.90
15949;DHT22;14848;50.954;6.642;2023-03-26T12:49:30;8.20;99.90
15949;DHT22;14848;50.954;6.642;2023-03-26T12:51:58;8.20;99.90
15949;DHT22;14848;50.954;6.642;2023-03-26T12:59:27;8.30;99.90
15949;DHT22;14848;50.954;6.642;2023-03-26T13:17:54;8.60;99.90
15949;DHT22;14848;50.954;6.642;2023-03-26T13:20:33;8.70;99.90
15949;DHT22;14848;50.954;6.642;2023-03-26T13:25:50;8.70;99.90
15949;DHT22;14848;50.954;6.642;2023-03-26T13:33:22;8.70;99.90
15949;DHT22;14848;50.954;6.642;2023-03-26T13:43:31;9.00;99.90
15949;DHT22;14848;50.954;6.642;2023-03-26T13:48:36;9.50;99.90
15949;DHT22;14848;50.954;6.642;2023-03-26T13:54:40;9.50;99.90
15949;DHT22;14848;50.954;6.642;2023-03-26T13:57:10;9.50;99.90
15949;DHT22;14848;50.954;6.642;2023-03-26T14:02:07;9.60;99.90
15949;DHT22;14848;50.954;6.642;2023-03-26T14:04:37;9.60;99.90
15949;DHT22;14848;50.954;6.642;2023-03-26T14:07:48;9.60;99.90
15949;DHT22;14848;50.954;6.642;2023-03-26T14:12:39;9.60;99.90
15949;DHT22;14848;50.954;6.642;2023-03-26T14:15:31;9.60;99.90
15949;DHT22;14848;50.954;6.642;2023-03-26T14:18:21;9.50;99.90
15949;DHT22;14848;50.954;6.642;2023-03-26T14:31:50;9.60;99.90
15949;DHT22;14848;50.954;6.642;2023-03-26T14:39:29;9.40;99.90
15949;DHT22;14848;50.954;6.642;2023-03-26T14:42:17;9.40;99.90
15949;DHT22;14848;50.954;6.642;2023-03-26T14:58:22;9.50;99.90
15949;DHT22;14848;50.954;6.642;2023-03-26T15:01:03;9.30;99.90
15949;DHT22;14848;50.954;6.642;2023-03-26T15:14:09;9.50;99.90
15949;DHT22;14848;50.954;6.642;2023-03-26T15:16:43;9.60;99.90
15949;DHT22;14848;50.954;6.642;2023-03-26T15:19:28;9.60;99.90
15949;DHT22;14848;50.954;6.642;2023-03-26T15:40:42;9.30;99.90
15949;DHT22;14848;50.954;6.642;2023-03-26T15:43:13;9.30;99.90
15949;DHT22;14848;50.954;6.642;2023-03-26T15:45:40;9.20;99.90
15949;DHT22;14848;50.954;6.642;2023-03-26T15:50:40;9.20;99.90
15949;DHT22;14848;50.954;6.642;2023-03-26T15:53:19;9.00;99.90
15949;DHT22;14848;50.954;6.642;2023-03-26T16:03:38;8.70;99.90
15949;DHT22;14848;50.954;6.642;2023-03-26T16:24:22;8.40;99.90
15949;DHT22;14848;50.954;6.642;2023-03-26T16:26:53;9.90;99.90
15949;DHT22;14848;50.954;6.642;2023-03-26T16:29:22;8.30;99.90
15949;DHT22;14848;50.954;6.642;2023-03-26T16:34:28;8.20;99.90
15949;DHT22;14848;50.954;6.642;2023-03-26T16:37:04;8.20;99.90
15949;DHT22;14848;50.954;6.642;2023-03-26T16:42:15;8.10;99.90
15949;DHT22;14848;50.954;6.642;2023-03-26T16:49:52;8.00;99.90
15949;DHT22;14848;50.954;6.642;2023-03-26T16:52:31;7.90;99.90
15949;DHT22;14848;50.954;6.642;2023-03-26T16:55:12;7.90;99.90
15949;DHT22;14848;50.954;6.642;2023-03-26T16:57:42;7.90;99.90
15949;DHT22;14848;50.954;6.642;2023-03-26T17:10:31;7.90;99.90
15949;DHT22;14848;50.954;6.642;2023-03-26T17:13:06;7.80;99.90
15949;DHT22;14848;50.954;6.642;2023-03-26T17:15:39;7.80;99.90
15949;DHT22;14848;50.954;6.642;2023-03-26T17:18:16;7.80;99.90
15949;DHT22;14848;50.954;6.642;2023-03-26T17:31:34;7.80;99.90
15949;DHT22;14848;50.954;6.642;2023-03-26T17:36:54;7.70;99.90
15949;DHT22;14848;50.954;6.642;2023-03-26T17:39:47;7.60;99.90
15949;DHT22;14848;50.954;6.642;2023-03-26T17:44:40;7.40;99.90
15949;DHT22;14848;50.954;6.642;2023-03-26T17:47:13;7.30;99.90
15949;DHT22;14848;50.954;6.642;2023-03-26T17:49:41;7.30;99.90
15949;DHT22;14848;50.954;6.642;2023-03-26T17:54:37;7.20;99.90
15949;DHT22;14848;50.954;6.642;2023-03-26T17:57:09;7.30;99.90
15949;DHT22;14848;50.954;6.642;2023-03-26T17:59:37;7.30;99.90
15949;DHT22;14848;50.954;6.642;2023-03-26T18:02:06;7.20;99.90
15949;DHT22;14848;50.954;6.642;2023-03-26T18:04:36;7.20;99.90
15949;DHT22;14848;50.954;6.642;2023-03-26T18:07:26;7.20;99.90
15949;DHT22;14848;50.954;6.642;2023-03-26T18:17:46;7.10;99.90
15949;DHT22;14848;50.954;6.642;2023-03-26T18:20:23;7.10;99.90
15949;DHT22;14848;50.954;6.642;2023-03-26T18:22:49;7.10;99.90
15949;DHT22;14848;50.954;6.642;2023-03-26T18:25:19;7.20;99.90
15949;DHT22;14848;50.954;6.642;2023-03-26T18:27:46;7.10;99.90
15949;DHT22;14848;50.954;6.642;2023-03-26T18:30:15;7.10;99.90
15949;DHT22;14848;50.954;6.642;2023-03-26T18:33:00;7.20;99.90
15949;DHT22;14848;50.954;6.642;2023-03-26T18:37:58;7.20;99.90
15949;DHT22;14848;50.954;6.642;2023-03-26T18:40:30;7.20;99.90
15949;DHT22;14848;50.954;6.642;2023-03-26T18:42:57;7.10;99.90
15949;DHT22;14848;50.954;6.642;2023-03-26T18:47:52;7.10;99.90
15949;DHT22;14848;50.954;6.642;2023-03-26T18:50:22;7.10;99.90
15949;DHT22;14848;50.954;6.642;2023-03-26T18:52:48;7.10;99.90
15949;DHT22;14848;50.954;6.642;2023-03-26T18:55:15;7.10;99.90
15949;DHT22;14848;50.954;6.642;2023-03-26T18:57:41;7.20;99.90
15949;DHT22;14848;50.954;6.642;2023-03-26T19:00:14;7.10;99.90
15949;DHT22;14848;50.954;6.642;2023-03-26T19:02:42;7.00;99.90
15949;DHT22;14848;50.954;6.642;2023-03-26T19:05:12;7.00;99.90
15949;DHT22;14848;50.954;6.642;2023-03-26T19:07:38;6.90;99.90
15949;DHT22;14848;50.954;6.642;2023-03-26T19:10:04;6.90;99.90
15949;DHT22;14848;50.954;6.642;2023-03-26T19:12:31;6.80;99.90
15949;DHT22;14848;50.954;6.642;2023-03-26T19:17:25;6.80;99.90
15949;DHT22;14848;50.954;6.642;2023-03-26T19:19:51;6.80;99.90
15949;DHT22;14848;50.954;6.642;2023-03-26T19:22:18;6.80;99.90
15949;DHT22;14848;50.954;6.642;2023-03-26T19:24:44;6.80;99.90
15949;DHT22;14848;50.954;6.642;2023-03-26T19:27:10;6.70;99.90
15949;DHT22;14848;50.954;6.642;2023-03-26T19:29:36;6.80;99.90
15949;DHT22;14848;50.954;6.642;2023-03-26T19:32:03;6.80;99.90
15949;DHT22;14848;50.954;6.642;2023-03-26T19:34:38;6.80;99.90
15949;DHT22;14848;50.954;6.642;2023-03-26T19:37:15;6.90;99.90
15949;DHT22;14848;50.954;6.642;2023-03-26T19:39:45;6.80;99.90
15949;DHT22;14848;50.954;6.642;2023-03-26T19:42:13;6.80;99.90
15949;DHT22;14848;50.954;6.642;2023-03-26T19:44:39;6.80;99.90
15949;DHT22;14848;50.954;6.642;2023-03-26T19:49:46;6.70;99.90
15949;DHT22;14848;50.954;6.642;2023-03-26T19:54:51;6.70;99.90
15949;DHT22;14848;50.954;6.642;2023-03-26T19:57:19;6.70;99.90
15949;DHT22;14848;50.954;6.642;2023-03-26T19:59:46;6.60;99.90
15949;DHT22;14848;50.954;6.642;2023-03-26T20:02:11;6.60;99.90
15949;DHT22;14848;50.954;6.642;2023-03-26T20:04:39;6.60;99.90
15949;DHT22;14848;50.954;6.642;2023-03-26T20:07:09;6.60;99.90
15949;DHT22;14848;50.954;6.642;2023-03-26T20:09:35;6.40;99.90
15949;DHT22;14848;50.954;6.642;2023-03-26T20:12:00;6.50;99.90
15949;DHT22;14848;50.954;6.642;2023-03-26T20:14:26;6.50;99.90
15949;DHT22;14848;50.954;6.642;2023-03-26T20:16:51;6.40;99.90
15949;DHT22;14848;50.954;6.642;2023-03-26T20:19:17;6.50;99.90
15949;DHT22;14848;50.954;6.642;2023-03-26T20:21:43;6.50;99.90
15949;DHT22;14848;50.954;6.642;2023-03-26T20:24:11;6.50;99.90
15949;DHT22;14848;50.954;6.642;2023-03-26T20:26:38;6.50;99.90
15949;DHT22;14848;50.954;6.642;2023-03-26T20:29:04;6.50;99.90
15949;DHT22;14848;50.954;6.642;2023-03-26T20:31:30;6.40;99.90
15949;DHT22;14848;50.954;6.642;2023-03-26T20:33:55;6.40;99.90
15949;DHT22;14848;50.954;6.642;2023-03-26T20:36:22;6.60;99.90
15949;DHT22;14848;50.954;6.642;2023-03-26T20:38:47;6.30;99.90
15949;DHT22;14848;50.954;6.642;2023-03-26T20:41:14;6.30;99.90
15949;DHT22;14848;50.954;6.642;2023-03-26T20:43:40;6.30;99.90
15949;DHT22;14848;50.954;6.642;2023-03-26T20:46:17;6.30;99.90
15949;DHT22;14848;50.954;6.642;2023-03-26T20:48:43;6.30;1.00
15949;DHT22;14848;50.954;6.642;2023-03-26T20:51:10;6.20;99.90
15949;DHT22;14848;50.954;6.642;2023-03-26T20:53:39;6.20;99.90
15949;DHT22;14848;50.954;6.642;2023-03-26T20:56:16;6.20;99.90
15949;DHT22;14848;50.954;6.642;2023-03-26T20:58:43;6.20;99.90
15949;DHT22;14848;50.954;6.642;2023-03-26T21:01:09;6.20;99.90
15949;DHT22;14848;50.954;6.642;2023-03-26T21:03:35;6.10;99.90
15949;DHT22;14848;50.954;6.642;2023-03-26T21:06:02;6.10;99.90
15949;DHT22;14848;50.954;6.642;2023-03-26T21:11:00;6.10;99.90
15949;DHT22;14848;50.954;6.642;2023-03-26T21:13:36;6.00;99.90
15949;DHT22;14848;50.954;6.642;2023-03-26T21:16:03;6.00;99.90
15949;DHT22;14848;50.954;6.642;2023-03-26T21:18:29;6.00;99.90
15949;DHT22;14848;50.954;6.642;2023-03-26T21:23:45;7.90;99.90
15949;DHT22;14848;50.954;6.642;2023-03-26T21:26:23;5.80;99.90
15949;DHT22;14848;50.954;6.642;2023-03-26T21:28:50;5.80;99.90
15949;DHT22;14848;50.954;6.642;2023-03-26T21:31:17;5.90;99.90
